• Join FlightAware (Why Join?)
  • Login
  • US Flag 
04:22AM EDT


 

Airport Tracker/Info


-or-


 

Live Flight TrackerFlight Track Log ✈ SWA1377 ✈ 21-Apr-2013 ✈ KSAT - KMDW

Flight Track Log - Related Links

Times and Time Zones

All times are in EDT time to prevent confusion due to time zone crossing. See the SWA1377 flight status page for this flight to view local times or setup timezone preferences in your user account.

Time Position Orientation Groundspeed Altitude Reporting Facility
EDT Latitude Longitude Course Direction KTS MPH feet Rate Location/Type
07:17AM 29.5222 -98.4592 129° Southeast 155 178 1,700  Level Houston Center
07:17AM 29.5064 -98.4367 129° Southeast 148 170 3,000 2,220 Climbing Houston Center
07:18AM 29.4733 -98.3869 127° Southeast 192 221 5,300 1,980 Climbing Houston Center
07:19AM 29.5000 -98.3250 64° Northeast 264 304 7,000 2,280 Climbing Houston Center
07:20AM 29.5731 -98.3403 350° North 270 311 10,000 2,460 Climbing Houston Center
07:21AM 29.6578 -98.3475 356° North 314 361 12,000 2,640 Climbing Houston Center
07:22AM 29.7514 -98.3575 355° North 339 390 15,300 3,180 Climbing Houston Center
07:23AM 29.8486 -98.3672 355° North 349 402 18,500 3,060 Climbing Houston Center
07:24AM 29.9575 -98.3778 355° North 363 418 21,500 2,820 Climbing Houston Center
07:25AM 30.0628 -98.3883 355° North 378 435 24,200 2,400 Climbing Houston Center
07:26AM 30.1725 -98.3828 North 403 464 26,400 1,980 Climbing Houston Center
07:27AM 30.2783 -98.3678 North 415 478 28,200 1,680 Climbing Houston Center
07:28AM 30.3947 -98.3511 North 432 497 29,800 1,620 Climbing Houston Center
07:29AM 30.5178 -98.3325 North 440 506 31,500 1,680 Climbing Houston Center
07:30AM 30.6419 -98.3142 North 442 509 33,300 1,860 Climbing Houston Center
07:31AM 30.7647 -98.2964 North 440 506 35,300 1,800 Climbing Houston Center
07:32AM 30.8864 -98.2781 North 435 501 37,000 1,560 Climbing Houston Center
07:33AM 31.0058 -98.2617 North 428 493 38,400 1,020 Climbing Fort Worth Center
07:34AM 31.1250 -98.2456 North 428 493 39,000 300 Climbing Fort Worth Center
07:35AM 31.2461 -98.2272 North 431 496 39,000  Level Fort Worth Center
07:36AM 31.3631 -98.2114 North 426 490 39,000  Level Fort Worth Center
07:37AM 31.4678 -98.1856 12° North 426 490 39,000  Level Fort Worth Center
07:38AM 31.5808 -98.1108 29° Northeast 437 503 39,000  Level Fort Worth Center
07:39AM 31.6919 -98.0336 31° Northeast 455 524 39,000  Level Fort Worth Center
07:40AM 31.8031 -97.9536 31° Northeast 465 535 39,000  Level Fort Worth Center
07:41AM 31.9139 -97.8783 30° Northeast 465 535 39,000  Level Fort Worth Center
07:42AM 32.0353 -97.7908 31° Northeast 465 535 39,000  Level Fort Worth Center
07:43AM 32.1442 -97.7128 31° Northeast 455 524 39,000  Level Fort Worth Center
07:44AM 32.2528 -97.6369 31° Northeast 460 529 39,000  Level Fort Worth Center
07:45AM 32.3636 -97.5561 32° Northeast 459 528 39,000  Level Fort Worth Center
07:46AM 32.4639 -97.4872 30° Northeast 459 528 39,000  Level Fort Worth Center
07:47AM 32.5767 -97.4061 31° Northeast 459 528 39,000  Level Fort Worth Center
07:48AM 32.6831 -97.3269 32° Northeast 459 528 39,000  Level Fort Worth Center
07:49AM 32.7914 -97.2478 32° Northeast 454 522 39,000  Level Fort Worth Center
07:50AM 32.9125 -97.1611 31° Northeast 454 522 39,000  Level Fort Worth Center
07:51AM 33.0147 -97.0939 29° Northeast 454 522 39,000  Level Fort Worth Center
07:52AM 33.1394 -97.0067 30° Northeast 462 532 39,000  Level Fort Worth Center
07:53AM 33.2375 -96.9392 30° Northeast 462 532 39,000  Level Fort Worth Center
07:54AM 33.3478 -96.8614 30° Northeast 462 532 39,000  Level Fort Worth Center
07:55AM 33.4600 -96.7836 30° Northeast 462 532 39,000  Level Fort Worth Center
07:56AM 33.5683 -96.7056 31° Northeast 462 532 39,000  Level Fort Worth Center
07:57AM 33.6783 -96.6297 30° Northeast 462 532 39,000  Level Fort Worth Center
07:58AM 33.7864 -96.5514 31° Northeast 462 532 39,000  Level Fort Worth Center
07:59AM 33.8964 -96.4725 31° Northeast 456 525 39,000  Level Fort Worth Center
08:00AM 34.0128 -96.3886 31° Northeast 449 517 39,000  Level Fort Worth Center
08:01AM 34.1039 -96.3225 31° Northeast 444 511 39,000  Level Fort Worth Center
08:02AM 34.2139 -96.2456 30° Northeast 436 502 39,000  Level Fort Worth Center
08:03AM 34.3194 -96.1664 32° Northeast 441 507 39,000  Level Fort Worth Center
08:04AM 34.4314 -96.0892 30° Northeast 446 513 39,000  Level Fort Worth Center
08:05AM 34.5389 -96.0094 31° Northeast 441 507 39,000  Level Fort Worth Center
08:06AM 34.6486 -95.9292 31° Northeast 446 513 39,000  Level Fort Worth Center
08:07AM 34.7561 -95.8517 31° Northeast 446 513 39,000  Level Fort Worth Center
08:08AM 34.8614 -95.7636 34° Northeast 451 519 39,000  Level Fort Worth Center
08:11AM 35.0931 -95.5036 43° Northeast 474 545 39,000  Level Memphis Center
08:12AM 35.1875 -95.3875 45° Northeast 474 545 39,000  Level Memphis Center
08:13AM 35.2836 -95.2764 43° Northeast 474 545 39,000  Level Memphis Center
08:14AM 35.3800 -95.1650 43° Northeast 474 545 39,000  Level Memphis Center
08:15AM 35.4739 -95.0531 44° Northeast 474 545 39,000  Level Memphis Center
08:16AM 35.5700 -94.9358 45° Northeast 474 545 39,000  Level Memphis Center
08:17AM 35.6656 -94.8261 43° Northeast 474 545 39,000  Level Memphis Center
08:18AM 35.7714 -94.7297 36° Northeast 469 540 39,000  Level Memphis Center
08:19AM 35.8747 -94.6353 37° Northeast 463 533 39,000  Level Memphis Center
08:20AM 35.9781 -94.5406 37° Northeast 463 533 39,000  Level Memphis Center
08:21AM 36.0811 -94.4456 37° Northeast 458 527 39,000  Level Memphis Center
08:22AM 36.1844 -94.3478 37° Northeast 458 527 39,000  Level Memphis Center
08:23AM 36.2875 -94.2500 37° Northeast 458 527 39,000  Level Memphis Center
08:24AM 36.4264 -94.1206 37° Northeast 466 536 39,000  Level Kansas City Center
08:25AM 36.5303 -94.0228 37° Northeast 467 537 39,000  Level Kansas City Center
08:26AM 36.6342 -93.9253 37° Northeast 468 539 39,000  Level Kansas City Center
08:27AM 36.7383 -93.8258 37° Northeast 469 540 39,000  Level Kansas City Center
08:28AM 36.8406 -93.7264 38° Northeast 471 542 39,000  Level Kansas City Center
08:29AM 36.9322 -93.6403 37° Northeast 468 539 39,000  Level Kansas City Center
08:30AM 37.0358 -93.5397 38° Northeast 469 540 39,000  Level Kansas City Center
08:31AM 37.1622 -93.4208 37° Northeast 470 541 39,000  Level Kansas City Center
08:32AM 37.2653 -93.3225 37° Northeast 466 536 39,000  Level Kansas City Center
08:33AM 37.3686 -93.2217 38° Northeast 467 537 39,000  Level Kansas City Center
08:34AM 37.4697 -93.1197 39° Northeast 465 535 39,000  Level Kansas City Center
08:35AM 37.5731 -93.0214 37° Northeast 462 532 39,000  Level Kansas City Center
08:36AM 37.6761 -92.9194 38° Northeast 466 536 39,000  Level Kansas City Center
08:37AM 37.7775 -92.8175 38° Northeast 464 534 39,000  Level Kansas City Center
08:38AM 37.8806 -92.7128 39° Northeast 471 542 39,000  Level Kansas City Center
08:39AM 37.9858 -92.6100 38° Northeast 476 548 39,000  Level Kansas City Center
08:40AM 38.0875 -92.5081 38° Northeast 472 543 39,000  Level Kansas City Center
08:41AM 38.1994 -92.3967 38° Northeast 477 549 39,000  Level Kansas City Center
08:42AM 38.3056 -92.2903 38° Northeast 478 550 39,000  Level Kansas City Center
08:43AM 38.4100 -92.1858 38° Northeast 475 547 39,000  Level Kansas City Center
08:44AM 38.5139 -92.0797 39° Northeast 475 547 39,000  Level Kansas City Center
08:45AM 38.6164 -91.9744 39° Northeast 472 543 39,000  Level Kansas City Center
08:46AM 38.7203 -91.8703 38° Northeast 472 543 39,000  Level Kansas City Center
08:47AM 38.8228 -91.7647 39° Northeast 471 542 39,000  Level Kansas City Center
08:48AM 38.9142 -91.6706 39° Northeast 472 543 39,000  Level Kansas City Center
08:49AM 39.0172 -91.5647 39° Northeast 473 544 39,000  Level Kansas City Center
08:50AM 39.1194 -91.4589 39° Northeast 471 542 39,000 -240 Level Kansas City Center
08:51AM 39.2225 -91.3533 38° Northeast 471 542 38,600 -660 Descending Kansas City Center
08:52AM 39.3258 -91.2478 38° Northeast 473 544 37,700 -1,080 Descending Kansas City Center
08:53AM 39.4478 -91.1189 39° Northeast 471 542 36,500 -1,080 Descending Kansas City Center
08:54AM 39.5481 -91.0125 39° Northeast 467 537 35,600 -780 Descending Kansas City Center
08:55AM 39.6489 -90.9067 39° Northeast 466 536 35,000 -300 Descending Kansas City Center
08:56AM 39.7489 -90.8000 39° Northeast 466 536 35,000 -600 Level Kansas City Center
08:57AM 39.8494 -90.6928 39° Northeast 458 527 33,900 -1,140 Descending Kansas City Center
08:59AM 39.9403 -90.5947 40° Northeast 433 498 32,800 -1,020 Descending Kansas City Center
09:00AM 40.0314 -90.4978 39° Northeast 426 490 31,800 -900 Descending Kansas City Center
09:01AM 40.1233 -90.4008 39° Northeast 425 489 31,000 -660 Descending Kansas City Center
09:01AM 40.1408 -90.3806 42° Northeast 427 491 31,000  Level Chicago Center
09:02AM 40.2325 -90.2828 39° Northeast 425 489 31,000 -480 Level Chicago Center
09:03AM 40.3408 -90.1642 40° Northeast 422 486 30,100 -960 Descending Chicago Center
09:04AM 40.4322 -90.0650 40° Northeast 426 490 29,100 -1,200 Descending Chicago Center
09:05AM 40.5161 -89.9725 40° Northeast 417 480 27,700 -1,740 Descending Chicago Center
09:06AM 40.6019 -89.8786 40° Northeast 403 464 25,600 -1,860 Descending Chicago Center
09:07AM 40.6814 -89.7858 42° Northeast 388 447 23,900 -1,680 Descending Chicago Center
09:08AM 40.7325 -89.6658 61° Northeast 379 436 22,200 -1,560 Descending Chicago Center
09:09AM 40.8089 -89.5397 51° Northeast 376 433 20,800 -1,140 Descending Chicago Center
09:10AM 40.8750 -89.4339 50° Northeast 375 432 19,900 -1,020 Descending Chicago Center
09:11AM 40.9394 -89.3294 51° Northeast 369 425 18,800 -1,080 Descending Chicago Center
09:12AM 41.0014 -89.2272 51° Northeast 360 414 17,800 -1,080 Descending Chicago Center
09:13AM 41.0606 -89.1275 52° Northeast 348 400 16,700 -1,500 Descending Chicago Center
09:14AM 41.1211 -89.0303 50° Northeast 344 396 14,800 -1,860 Descending Chicago Center
09:15AM 41.1794 -88.9308 52° Northeast 343 395 13,000 -1,800 Descending Chicago Center
09:16AM 41.2367 -88.8364 51° Northeast 337 388 11,200 -1,620 Descending Chicago Center
09:17AM 41.3011 -88.7283 52° Northeast 318 366 9,800 -1,380 Descending Chicago Center
09:18AM 41.3511 -88.6467 51° Northeast 299 344 8,400 -1,320 Descending Chicago Center
09:19AM 41.4000 -88.5642 52° Northeast 290 334 7,100 -1,200 Descending Chicago Center
09:20AM 41.4475 -88.4850 51° Northeast 282 325 6,000 -840 Descending Chicago Center
09:21AM 41.4936 -88.4072 52° Northeast 274 315 5,400 -840 Descending Chicago Center
09:22AM 41.5397 -88.3300 51° Northeast 269 310 4,300 -720 Descending Chicago Center
09:23AM 41.5850 -88.2592 49° Northeast 260 299 4,000 -180 Descending Chicago Center
09:24AM 41.6303 -88.1925 48° Northeast 250 288 4,000 -60 Level Chicago Center
09:25AM 41.6761 -88.1258 47° Northeast 244 281 3,900 -840 Descending Chicago Center
09:26AM 41.7219 -88.0558 49° Northeast 246 283 2,400 -780 Descending Chicago Center
09:27AM 41.7708 -87.9828 48° Northeast 229 264 2,400 -120 Level Chicago Center
09:28AM 41.8014 -87.9364 49° Northeast 188 216 2,200 -240 Descending Chicago Center
09:29AM 41.8317 -87.8906 48° Northeast 173 199 2,000 -60 Descending Chicago Center
09:30AM 41.8333 -87.8333 88° East 148 170 2,100 -240 Climbing Chicago TRACON
09:31AM 41.8167 -87.8000 124° Southeast 114 131 1,600 -600 Descending Chicago TRACON
09:32AM 41.8000 -87.7667 124° Southeast 122 140 1,000 -600 Descending Chicago TRACON